Airfield :







YOU CAN JOIN US ON...

 
LOGIN :

Register | Disclaimer

   EN    FR    IT 

 









Legend :    VFR   Marginal VFR   IFR   Intensive IFR   Very Intensive IFR
Visi :
Ceiling :
>= 8 km
>= 3000ft
5 to 8 km
1000 to 3000 ft
1500m to 5 km
500 to 1000 ft
800 to 1500m
200 to 500 ft
< 800m
< 200 ft
Symbols :   Thunderstorms  Fog  Heavy snow  Heavy precipitations  Wind > 20 kt






- Airport Elevation : 124 ft
- IATA code : YGV


CYGV - Havre St Pierre

CURRENT METAR :
  • 231819Z AUTO 09017G25KT 6SM -RA BR OVC010 05/04 A2985 RMK PCPN 0.8MM PAST HR SLP112

EXPIRED METARs :
  • 231812Z AUTO 09018G24KT 5SM -RA BR OVC010 05/04 A2985 RMK PCPN 0.5MM PAST HR SLP112
  • 231744Z AUTO 09016G25KT 9SM -RA OVC012 05/04 A2986 RMK SLP115
  • 231700Z AUTO 10016G31KT 9SM BKN012 OVC018 05/04 A2986 RMK SLP113
  • 231600Z AUTO 10016G28KT 9SM BKN010 OVC041 05/04 A2988 RMK SLP123
  • 231530Z AUTO 10017G29KT 9SM BKN010 BKN041 OVC050 05/04 A2989 RMK PRESFR SLP127
  • 231500Z AUTO 10019G28KT 9SM -RA FEW014 SCT022 BKN041 OVC055 05/04 A2992 RMK PRESFR PCPN 1.0MM PAST HR SLP135
  • 231431Z AUTO 11017G27KT 9SM -RA SCT016 BKN023 BKN046 OVC060 05/04 A2993 RMK PCPN 0.8MM PAST HR SLP139
  • 231400Z AUTO 11016G23KT 7SM -RA FEW014 OVC066 05/04 A2994 RMK PRESRR SLP144

TAF TAF CYGV
Valid from the 23 at 14:00 until the 24 at 02:00 UTC


231340Z 2314/2402 10015G28KT P6SM -RA SCT030 OVC060
BECMG 2314/2316 10018G32KT
FM231600 10018G32KT P6SM -RA FEW009 SCT020 OVC040
TEMPO 2316/2321 5SM -RA -DZ BR SCT009 OVC020
PROB40 2318/2321 2 1/2SM -DZ BR BKN009 OVC020
FM232100 10018G28KT 5SM -RA DZ BR BKN007 OVC020
BECMG 2400/2402 09008G18KT RMK FCST BASED ON AUTO OBS. NXT FCST BY 232000Z
CZUL FIR / North America



MET'MAP, your aeronautical weather chart ! - Copyright ORBIFLY December 2007 - Disclaimer

ORBIFLY MET'MAP TEAM :

Programming & Development : Alexandra Zaïnal
Original concept : Baudouin d'Aumeries
Technical & hardware support : Manuel Goepfert
Assistance : Marc-Olivier Méhu




SOURCES & CREDITS :

   NOAA